This is the latest recevied weather packets stored in our database for station/object DH1NAI-6. If no packets are shown the sender has not sent any weather packets the latest 10 day(s).
| Time | Temp. | Humidity | Pressure | Rain* | Wind** | Luminosity | Snow |
|---|---|---|---|---|---|---|---|
| 1787503015 | 16.11° C | 62% | 1020.4 hPa | 0 mm | - | 18 W/m² | - |
| 1787502407 | 17.22° C | 59% | 1020.1 hPa | 0 mm | - | 26 W/m² | - |
| 1787501793 | 17.22° C | 56% | 1019.9 hPa | 0 mm | - | 30 W/m² | - |
| 1787501191 | 17.22° C | 55% | 1019.9 hPa | 0 mm | - | 25 W/m² | - |
| 1787500583 | 17.22° C | 55% | 1020 hPa | 0 mm | - | 69 W/m² | - |
| 1787499959 | 18.33° C | 54% | 1020.2 hPa | 0 mm | - | 87 W/m² | - |
| 1787499335 | 17.78° C | 55% | 1020 hPa | 0 mm | - | 51 W/m² | - |
| 1787498727 | 17.78° C | 55% | 1020.2 hPa | 0 mm | - | 89 W/m² | - |
| 1787498119 | 17.22° C | 55% | 1020.3 hPa | 0 mm | - | 39 W/m² | - |
| 1787497511 | 17.78° C | 53% | 1020.2 hPa | 0 mm | - | 28 W/m² | - |
| 1787496904 | 18.89° C | 51% | 1020.1 hPa | 0 mm | - | 120 W/m² | - |
| 1787496295 | 18.33° C | 53% | 1020.1 hPa | 0 mm | - | 132 W/m² | - |
| 1787495687 | 18.89° C | 55% | 1020 hPa | 0 mm | - | 32 W/m² | - |
| 1787495072 | 19.44° C | 51% | 1020.1 hPa | 0 mm | - | 150 W/m² | - |
| 1787494472 | 19.44° C | 51% | 1020.1 hPa | 0 mm | - | 151 W/m² | - |
| 1787493863 | 19.44° C | 52% | 1020.1 hPa | 0 mm | - | 168 W/m² | - |
| 1787493255 | 18.89° C | 54% | 1020 hPa | 0 mm | - | 174 W/m² | - |
| 1787492647 | 17.78° C | 55% | 1020.2 hPa | 0 mm | - | 182 W/m² | - |
| 1787492040 | 17.22° C | 57% | 1020.4 hPa | 0 mm | - | 48 W/m² | - |
| 1787491431 | 18.33° C | 56% | 1020.5 hPa | 0 mm | - | 58 W/m² | - |
| 1787490807 | 18.33° C | 57% | 1020.4 hPa | 0 mm | - | 104 W/m² | - |
| 1787490184 | 18.89° C | 53% | 1020.3 hPa | 0 mm | - | 177 W/m² | - |
| 1787489553 | 18.89° C | 53% | 1020.3 hPa | 0 mm | - | 182 W/m² | - |
| 1787488935 | 18.89° C | 54% | 1020.5 hPa | 0 mm | - | 194 W/m² | - |
| 1787488327 | 18.33° C | 57% | 1020.3 hPa | 0 mm | - | 185 W/m² | - |
* Rain latest hour (hover to see other rain measurements)
** Current wind speed in m/s (hover to see current wind gust speed)